Data for 03/19/2010

Time Sea-Level Adjusted Pressure Absolute Pressure Temperature Relative Humidity Dew Point   
(mb) (inHg) (mb) (inHg) (C) (F) (%) (C) (F)
00:05 1022 30.18 851 25.13 -0.7 30.7 86 -2.8 27
00:10 1022 30.18 851 25.13 -0.7 30.7 88 -2.5 27.5
00:15 1022 30.18 851 25.13 -1 30.1 88 -2.7 27.1
00:20 1022 30.18 851 25.13 -1 30.3 87 -2.9 26.8
00:25 1022 30.18 851 25.13 -0.8 30.6 85 -3 26.6
00:30 1022 30.18 851 25.13 -0.9 30.4 87 -2.7 27.1
00:35 1022 30.18 851 25.13 -1.1 30 88 -2.9 26.8
00:40 1022 30.18 851 25.13 -1.3 29.8 88 -3.1 26.5
00:45 1022 30.18 851 25.13 -1.4 29.4 89 -3 26.6
00:50 1022 30.18 851 25.13 -1.6 29.2 92 -2.6 27.3
00:55 1022 30.18 851 25.13 -1.8 28.8 95 -2.5 27.5
01:00 1022 30.18 852 25.16 -1.9 28.6 96 -2.4 27.6
01:05 1022 30.18 852 25.16 -2 28.4 97 -2.4 27.6
01:10 1022 30.18 852 25.16 -2.1 28.2 97 -2.5 27.5
01:15 1022 30.18 852 25.16 -2.1 28.3 98 -2.4 27.7
01:20 1022 30.18 851 25.13 -2 28.4 98 -2.4 27.7
01:25 1022 30.18 851 25.13 -2.1 28.2 97 -2.5 27.5
01:30 1022 30.18 851 25.13 -2.3 27.8 97 -2.7 27.2
01:35 1022 30.18 851 25.13 -2.4 27.6 98 -2.8 27
01:40 1022 30.18 851 25.13 -2.4 27.7 98 -2.7 27.2
01:45 1022 30.18 852 25.16 -2.4 27.7 98 -2.7 27.1
01:50 1022 30.18 852 25.16 -2.4 27.6 98 -2.8 27
01:55 1022 30.18 852 25.16 -2.4 27.6 97 -2.8 26.9
02:00 1022 30.18 852 25.16 -2.5 27.6 97 -2.9 26.7
02:05 1022 30.18 852 25.16 -2.5 27.5 97 -2.9 26.7
02:10 1023 30.21 852 25.16 -2.5 27.5 97 -2.9 26.9
02:15 1023 30.21 852 25.16 -2.4 27.6 97 -2.8 27
02:20 1023 30.21 852 25.16 -2.5 27.5 97 -2.9 26.7
02:25 1023 30.21 852 25.16 -2.7 27.1 97 -3.1 26.4
02:30 1023 30.21 852 25.16 -2.8 27 98 -3.1 26.5
02:35 1023 30.21 852 25.16 -2.7 27.2 99 -2.9 26.8
02:40 1023 30.21 852 25.16 -2.4 27.8 99 -2.5 27.5
02:45 1023 30.21 852 25.16 -2.3 27.8 98 -2.6 27.3
02:50 1023 30.21 852 25.16 -2.4 27.6 98 -2.8 27
02:55 1023 30.21 852 25.16 -2.6 27.4 98 -2.9 26.8
03:00 1023 30.21 852 25.16 -2.5 27.4 98 -2.8 26.9
03:05 1023 30.21 852 25.16 -2.6 27.3 98 -2.9 26.7
03:10 1023 30.21 852 25.16 -2.6 27.3 98 -2.9 26.7
03:15 1023 30.21 852 25.16 -2.7 27.2 97 -3.1 26.4
03:20 1023 30.21 852 25.16 -2.8 26.9 96 -3.4 25.8
03:25 1023 30.21 852 25.16 -2.9 26.8 95 -3.5 25.6
03:30 1023 30.21 852 25.16 -3 26.6 96 -3.6 25.5
03:35 1023 30.21 852 25.16 -3.1 26.4 96 -3.6 25.5
03:40 1023 30.21 852 25.16 -3.1 26.4 97 -3.6 25.5
03:45 1023 30.21 852 25.16 -3.2 26.3 96 -3.7 25.4
03:50 1023 30.21 852 25.16 -3.2 26.2 97 -3.6 25.5
03:55 1023 30.21 852 25.16 -3.2 26.3 97 -3.6 25.5
04:00 1023 30.21 852 25.16 -3.1 26.4 97 -3.5 25.6
04:05 1023 30.21 852 25.16 -3.1 26.4 97 -3.6 25.5
04:10 1023 30.21 852 25.16 -3.1 26.3 96 -3.8 25.2
04:15 1023 30.21 852 25.16 -3.2 26.3 96 -3.7 25.3
04:20 1023 30.21 852 25.16 -3.2 26.3 96 -3.7 25.3
04:25 1023 30.21 852 25.16 -3.2 26.3 96 -3.8 25.2
04:30 1023 30.21 852 25.16 -3.2 26.2 95 -3.9 25
04:35 1023 30.21 852 25.16 -3.3 26 95 -4 24.9
04:40 1023 30.21 853 25.19 -3.3 26 95 -4 24.9
04:45 1023 30.21 853 25.19 -3.3 26 95 -4 24.8
04:50 1023 30.21 853 25.19 -3.3 26.1 94 -4.1 24.6
04:55 1023 30.21 853 25.19 -3.3 26.1 94 -4.1 24.5
05:00 1023 30.21 853 25.19 -3.3 26.1 93 -4.3 24.3
05:05 1023 30.21 853 25.19 -3.3 26 93 -4.4 24.1
05:10 1023 30.21 853 25.19 -3.4 26 92 -4.5 24
05:15 1023 30.21 853 25.19 -3.4 25.9 92 -4.6 23.8
05:20 1023 30.21 853 25.19 -3.3 26 93 -4.3 24.3
05:25 1024 30.24 853 25.19 -3.4 26 93 -4.4 24.1
05:30 1024 30.24 853 25.19 -3.3 26 93 -4.4 24.1
05:35 1024 30.24 853 25.19 -3.1 26.4 93 -4.1 24.5
05:40 1024 30.24 853 25.19 -3.1 26.4 93 -4.1 24.7
05:45 1024 30.24 853 25.19 -3.3 26.1 94 -4.2 24.5
05:50 1024 30.24 853 25.19 -3.3 26 93 -4.3 24.3
05:55 1024 30.24 853 25.19 -3.4 25.9 93 -4.3 24.2
06:00 1024 30.24 853 25.19 -3.5 25.7 94 -4.3 24.2
06:05 1024 30.24 853 25.19 -3.6 25.5 93 -4.6 23.7
06:10 1024 30.24 853 25.19 -3.9 24.9 93 -4.9 23.2
06:15 1024 30.24 853 25.19 -4.2 24.4 93 -5.1 22.8
06:20 1024 30.24 853 25.19 -4.4 24.1 94 -5.3 22.5
06:25 1024 30.24 853 25.19 -4.3 24.2 93 -5.3 22.4
06:30 1024 30.24 853 25.19 -4.5 24 93 -5.4 22.3
06:35 1024 30.24 853 25.19 -4.6 23.7 93 -5.6 21.9
06:40 1024 30.24 853 25.19 -4.7 23.5 93 -5.7 21.7
06:45 1024 30.24 853 25.19 -4.7 23.6 92 -5.8 21.5
06:50 1024 30.24 853 25.19 -4.7 23.5 91 -6 21.3
06:55 1024 30.24 853 25.19 -4.7 23.5 92 -5.8 21.5
07:00 1024 30.24 853 25.19 -4.9 23.2 93 -5.8 21.5
07:05 1024 30.24 853 25.19 -4.9 23.1 93 -6 21.3
07:10 1024 30.24 853 25.19 -5 23 94 -5.8 21.5
07:15 1024 30.24 853 25.19 -5 23.1 94 -5.8 21.6
07:20 1024 30.24 853 25.19 -5 22.9 93 -6 21.1
07:25 1024 30.24 853 25.19 -5.1 22.7 93 -6.1 21.1
07:30 1024 30.24 853 25.19 -5.2 22.6 94 -6.1 21.1
07:35 1024 30.24 853 25.19 -5.3 22.5 94 -6.1 20.9
07:40 1024 30.24 853 25.19 -5.3 22.5 93 -6.2 20.8
07:45 1024 30.24 853 25.19 -5.3 22.4 93 -6.3 20.6
07:50 1024 30.24 853 25.19 -5.4 22.3 93 -6.4 20.5
07:55 1024 30.24 853 25.19 -5.4 22.3 93 -6.4 20.5
08:00 1024 30.24 853 25.19 -5.4 22.3 92 -6.5 20.3
08:05 1024 30.24 854 25.22 -5.4 22.3 92 -6.6 20.2
08:10 1024 30.24 854 25.22 -5.5 22.1 92 -6.6 20
08:15 1024 30.24 854 25.22 -5.5 22 91 -6.8 19.8
08:20 1024 30.24 854 25.22 -5.6 21.9 91 -6.9 19.7
08:25 1025 30.27 854 25.22 -5.5 22 90 -6.9 19.5
08:30 1025 30.27 854 25.22 -5.5 22 89 -7 19.4
08:35 1025 30.27 854 25.22 -5.6 21.9 89 -7.1 19.2
08:40 1025 30.27 854 25.22 -5.6 21.9 89 -7.2 19.1
08:45 1025 30.27 854 25.22 -5.5 22.1 88 -7.1 19.1
08:50 1025 30.27 854 25.22 -5.5 22.1 88 -7.2 19.1
08:55 1025 30.27 854 25.22 -5.5 22.1 88 -7.2 19
09:00 1025 30.27 854 25.22 -5.5 22.1 87 -7.4 18.8
09:05 1025 30.27 854 25.22 -5.5 22.1 87 -7.4 18.7
09:10 1025 30.27 854 25.22 -5.4 22.2 87 -7.3 18.8
09:15 1025 30.27 854 25.22 -5.3 22.5 86 -7.2 19
09:20 1025 30.27 854 25.22 -5.2 22.6 86 -7.3 18.9
09:25 1025 30.27 854 25.22 -5.1 22.8 85 -7.3 18.8
09:30 1025 30.27 854 25.22 -5.3 22.4 85 -7.5 18.6
09:35 1025 30.27 854 25.22 -5.3 22.4 85 -7.5 18.6
09:40 1025 30.27 854 25.22 -5.2 22.6 84 -7.5 18.5
09:45 1025 30.27 854 25.22 -5.1 22.8 85 -7.3 18.8
09:50 1025 30.27 854 25.22 -5 23 83 -7.5 18.5
09:55 1025 30.27 855 25.25 -5.1 22.8 83 -7.5 18.4
10:00 1025 30.27 855 25.25 -5.1 22.8 83 -7.6 18.3
10:05 1025 30.27 855 25.25 -5 23 82 -7.6 18.3
10:10 1025 30.27 855 25.25 -4.9 23.2 82 -7.5 18.5
10:15 1025 30.27 855 25.25 -4.9 23.2 82 -7.5 18.6
10:20 1025 30.27 855 25.25 -4.9 23.2 83 -7.3 18.8
10:25 1025 30.27 855 25.25 -4.9 23.3 82 -7.5 18.5
10:30 1025 30.27 854 25.22 -4.9 23.1 82 -7.6 18.3
10:35 1025 30.27 855 25.25 -4.8 23.3 81 -7.6 18.4
10:40 1025 30.27 855 25.25 -4.8 23.4 82 -7.5 18.6
10:45 1025 30.27 855 25.25 -4.7 23.5 81 -7.4 18.6
10:50 1025 30.27 855 25.25 -4.5 24 80 -7.4 18.6
10:55 1025 30.27 855 25.25 -4.2 24.4 79 -7.3 18.8
11:00 1025 30.27 855 25.25 -4.1 24.5 81 -6.9 19.6
11:05 1026 30.3 855 25.25 -3.7 25.3 78 -7 19.3
11:10 1026 30.3 855 25.25 -3.7 25.3 75 -7.5 18.5
11:15 1026 30.3 855 25.25 -3.4 25.8 77 -6.9 19.5
11:20 1026 30.3 855 25.25 -3.2 26.3 77 -6.7 20
11:25 1026 30.3 855 25.25 -3 26.6 77 -6.5 20.4
11:30 1026 30.3 855 25.25 -2.8 26.9 76 -6.5 20.3
11:35 1026 30.3 855 25.25 -2.8 26.9 74 -6.9 19.7
11:40 1026 30.3 855 25.25 -2.8 27 74 -6.8 19.7
11:45 1026 30.3 855 25.25 -2.4 27.7 74 -6.5 20.3
11:50 1026 30.3 855 25.25 -2.5 27.6 73 -6.6 20.1
11:55 1026 30.3 855 25.25 -2.4 27.7 76 -6.1 21.1
12:00 1026 30.3 855 25.25 -2 28.4 73 -6.2 20.8
12:05 1026 30.3 855 25.25 -1.8 28.8 72 -6.2 20.8
12:10 1026 30.3 855 25.25 -1.7 28.9 69 -6.6 20.1
12:15 1026 30.3 855 25.25 -2.1 28.3 72 -6.5 20.2
12:20 1026 30.3 855 25.25 -2.9 26.8 73 -7.1 19.2
12:25 1026 30.3 855 25.25 -2.5 27.6 72 -6.8 19.8
12:30 1026 30.3 855 25.25 -2.8 27 73 -7 19.5
12:35 1026 30.3 855 25.25 -2.6 27.3 72 -7 19.4
12:40 1026 30.3 855 25.25 -2.6 27.3 73 -6.7 19.9
12:45 1026 30.3 855 25.25 -2.7 27.2 73 -6.8 19.7
12:50 1026 30.3 855 25.25 -2.6 27.3 72 -6.9 19.5
12:55 1026 30.3 855 25.25 -2.4 27.6 70 -7.1 19.2
13:00 1026 30.3 855 25.25 -2 28.3 69 -6.9 19.6
13:05 1026 30.3 855 25.25 -1.5 29.4 67 -6.8 19.7
13:10 1026 30.3 855 25.25 -1.4 29.5 66 -6.9 19.6
13:15 1026 30.3 855 25.25 -1.6 29.2 66 -7.2 19.1
13:20 1026 30.3 855 25.25 -1 30.3 61 -7.5 18.4
13:25 1026 30.3 855 25.25 -0.7 30.7 63 -7 19.4
13:30 1026 30.3 855 25.25 -0.5 31.2 63 -6.8 19.8
13:35 1026 30.3 855 25.25 -0.9 30.4 65 -6.6 20.1
13:40 1026 30.3 855 25.25 -0.9 30.4 63 -7 19.4
13:45 1026 30.3 855 25.25 -1 30.2 66 -6.6 20.1
13:50 1026 30.3 855 25.25 -0.2 31.7 60 -7.1 19.2
13:55 1026 30.3 855 25.25 -0.6 31 63 -6.8 19.8
14:00 1025 30.27 855 25.25 -1.4 29.5 65 -7.1 19.2
14:05 1025 30.27 855 25.25 -1.3 29.6 66 -6.9 19.6
14:10 1025 30.27 855 25.25 -1 30.2 63 -7.1 19.2
14:15 1025 30.27 855 25.25 -1.1 30 65 -6.8 19.7
14:20 1025 30.27 855 25.25 -1.1 30 65 -6.9 19.5
14:25 1025 30.27 854 25.22 -1.5 29.3 66 -7 19.4
14:30 1025 30.27 854 25.22 -1.4 29.5 64 -7.4 18.7
14:35 1025 30.27 854 25.22 -1.1 30 61 -7.7 18.2
14:40 1025 30.27 854 25.22 -0.2 31.6 59 -7.4 18.8
14:45 1025 30.27 854 25.22 0.4 32.8 57 -7.2 19.1
14:50 1025 30.27 854 25.22 0.3 32.5 57 -7.3 18.9
14:55 1025 30.27 854 25.22 -0.3 31.4 59 -7.4 18.6
15:00 1025 30.27 854 25.22 -0 32 58 -7.4 18.7
15:05 1025 30.27 854 25.22 -0.8 30.6 60 -7.7 18.1
15:10 1025 30.27 854 25.22 -0.2 31.7 58 -7.4 18.7
15:15 1025 30.27 854 25.22 0.2 32.3 57 -7.5 18.6
15:20 1025 30.27 854 25.22 -0.3 31.4 58 -7.5 18.5
15:25 1025 30.27 854 25.22 -0.4 31.3 57 -8 17.7
15:30 1025 30.27 854 25.22 -0.2 31.7 56 -7.9 17.8
15:35 1025 30.27 854 25.22 0.2 32.4 57 -7.2 19
15:40 1025 30.27 854 25.22 0 32 58 -7.3 18.8
15:45 1025 30.27 854 25.22 -0.4 31.3 59 -7.4 18.6
15:50 1025 30.27 854 25.22 -0.2 31.7 55 -8.2 17.2
15:55 1025 30.27 854 25.22 -0.2 31.7 55 -8.1 17.5
16:00 1025 30.27 854 25.22 -0 32 55 -7.9 17.8
16:05 1025 30.27 854 25.22 0.2 32.3 56 -7.6 18.3
16:10 1025 30.27 854 25.22 -0.3 31.5 57 -7.7 18.1
16:15 1025 30.27 854 25.22 -0.3 31.4 58 -7.7 18.2
16:20 1025 30.27 854 25.22 -0.7 30.8 58 -7.9 17.8
16:25 1025 30.27 854 25.22 -0.3 31.5 57 -7.9 17.8
16:30 1025 30.27 854 25.22 -0.3 31.5 57 -7.8 17.9
16:35 1025 30.27 854 25.22 -0.1 31.9 57 -7.7 18.1
16:40 1025 30.27 854 25.22 0.1 32.1 56 -7.6 18.3
16:45 1025 30.27 854 25.22 -0.2 31.7 58 -7.5 18.5
16:50 1025 30.27 854 25.22 -0.6 30.9 58 -7.9 17.8
16:55 1025 30.27 854 25.22 -0.6 30.9 57 -8.2 17.3
17:00 1025 30.27 854 25.22 -0.7 30.7 57 -8.1 17.4
17:05 1025 30.27 854 25.22 -0.7 30.7 56 -8.5 16.7
17:10 1025 30.27 854 25.22 -0.6 31 57 -8.2 17.3
17:15 1025 30.27 854 25.22 -0.2 31.6 54 -8.4 16.9
17:20 1025 30.27 854 25.22 0.1 32.2 53 -8.4 16.9
17:25 1025 30.27 854 25.22 0.2 32.3 52 -8.6 16.5
17:30 1025 30.27 854 25.22 0.1 32.2 52 -8.7 16.3
17:35 1025 30.27 854 25.22 0 32 50 -9.3 15.2
17:40 1025 30.27 854 25.22 0.1 32.3 49 -9.3 15.3
17:45 1025 30.27 854 25.22 0.3 32.5 49 -9.3 15.3
17:50 1025 30.27 854 25.22 0.7 33.2 46 -9.6 14.7
17:55 1025 30.27 854 25.22 0.4 32.8 47 -9.5 14.9
18:00 1025 30.27 854 25.22 0.5 32.9 47 -9.5 14.8
18:05 1025 30.27 854 25.22 0.6 33.1 46 -9.7 14.5
18:10 1025 30.27 854 25.22 0.6 33.1 46 -9.7 14.5
18:15 1024 30.24 854 25.22 -0 32 48 -9.7 14.6
18:20 1024 30.24 854 25.22 -0.2 31.6 50 -9.5 14.9
18:25 1024 30.24 854 25.22 0.2 32.4 46 -10.1 13.9
18:30 1025 30.27 854 25.22 -0.2 31.6 48 -10 14
18:35 1025 30.27 854 25.22 -0 31.9 46 -10.3 13.5
18:40 1025 30.27 854 25.22 0.1 32.2 48 -9.6 14.8
18:45 1025 30.27 854 25.22 0.2 32.4 48 -9.6 14.7
18:50 1025 30.27 854 25.22 -0.1 31.9 46 -10.3 13.4
18:55 1025 30.27 854 25.22 -0.4 31.3 45 -10.9 12.3
19:00 1025 30.27 854 25.22 -0.6 30.8 46 -11 12.3
19:05 1024 30.24 854 25.22 -0.8 30.6 45 -11.2 11.8
19:10 1025 30.27 854 25.22 -0.6 31 44 -11.4 11.4
19:15 1025 30.27 854 25.22 -0.4 31.2 44 -11.4 11.5
19:20 1025 30.27 854 25.22 -0.3 31.4 44 -11.3 11.6
19:25 1025 30.27 854 25.22 -0.3 31.5 43 -11.5 11.3
19:30 1025 30.27 854 25.22 -0.4 31.3 44 -11.3 11.7
19:35 1024 30.24 854 25.22 -0.6 30.9 43 -11.7 11
19:40 1024 30.24 854 25.22 -1 30.2 47 -11 12.2
19:45 1025 30.27 854 25.22 -1.2 29.8 49 -10.6 12.9
19:50 1025 30.27 854 25.22 -1.2 29.8 53 -9.6 14.8
19:55 1025 30.27 854 25.22 -1.6 29.2 55 -9.4 15
20:00 1025 30.27 854 25.22 -1.7 28.9 55 -9.5 14.9
20:05 1025 30.27 854 25.22 -1.9 28.5 61 -8.5 16.7
20:10 1025 30.27 854 25.22 -2.3 27.9 64 -8.2 17.2
20:15 1025 30.27 854 25.22 -2.6 27.3 66 -8.1 17.4
20:20 1025 30.27 854 25.22 -2.6 27.2 67 -7.9 17.9
20:25 1025 30.27 854 25.22 -3 26.7 69 -7.9 17.9
20:30 1025 30.27 854 25.22 -3.2 26.2 70 -7.9 17.7
20:35 1025 30.27 854 25.22 -3.3 26 71 -7.9 17.7
20:40 1025 30.27 854 25.22 -3.5 25.7 70 -8.2 17.2
20:45 1025 30.27 854 25.22 -3.5 25.6 70 -8.3 17.1
20:50 1025 30.27 854 25.22 -3.7 25.3 66 -9.1 15.6
20:55 1025 30.27 854 25.22 -3.9 24.9 69 -8.7 16.3
21:00 1025 30.27 854 25.22 -3.9 25 68 -9 15.9
21:05 1025 30.27 854 25.22 -3.9 25 67 -9.2 15.5
21:10 1025 30.27 854 25.22 -4 24.7 66 -9.4 15.1
21:15 1025 30.27 854 25.22 -4 24.7 65 -9.6 14.8
21:20 1025 30.27 854 25.22 -3.9 25 64 -9.7 14.6
21:25 1025 30.27 854 25.22 -3.8 25.1 63 -9.9 14.2
21:30 1025 30.27 854 25.22 -3.8 25.1 65 -9.5 14.9
21:35 1025 30.27 854 25.22 -4 24.9 66 -9.4 15.1
21:40 1025 30.27 854 25.22 -4.1 24.5 68 -9.3 15.3
21:45 1025 30.27 854 25.22 -4.3 24.2 69 -9.1 15.6
21:50 1025 30.27 854 25.22 -4.5 23.8 71 -9.1 15.6
21:55 1025 30.27 854 25.22 -4.8 23.3 71 -9.3 15.3
22:00 1025 30.27 854 25.22 -4.9 23.1 72 -9.2 15.5
22:05 1025 30.27 854 25.22 -5 23 74 -8.9 16
22:10 1025 30.27 854 25.22 -5 23 75 -8.8 16.1
22:15 1025 30.27 854 25.22 -5 22.9 78 -8.4 16.9
22:20 1025 30.27 854 25.22 -5.2 22.7 78 -8.4 16.8
22:25 1025 30.27 854 25.22 -5.4 22.3 78 -8.6 16.4
22:30 1025 30.27 854 25.22 -5.5 22.1 79 -8.6 16.5
22:35 1025 30.27 854 25.22 -5.5 22.1 80 -8.5 16.8
22:40 1025 30.27 854 25.22 -5.5 22.1 81 -8.2 17.2
22:45 1025 30.27 854 25.22 -5.3 22.4 81 -8.1 17.5
22:50 1025 30.27 854 25.22 -5.2 22.7 81 -7.9 17.8
22:55 1025 30.27 854 25.22 -5.2 22.7 82 -7.8 17.9
23:00 1025 30.27 854 25.22 -5.2 22.6 82 -7.7 18.1
23:05 1025 30.27 854 25.22 -5.3 22.5 82 -7.9 17.9
23:10 1025 30.27 854 25.22 -5.5 22.1 83 -8 17.6
23:15 1025 30.27 854 25.22 -5.5 22 84 -7.8 18
23:20 1025 30.27 854 25.22 -5.4 22.3 84 -7.7 18.2
23:25 1025 30.27 854 25.22 -5.4 22.2 84 -7.7 18.1
23:30 1025 30.27 854 25.22 -5.7 21.8 81 -8.4 16.9
23:35 1025 30.27 854 25.22 -5.9 21.3 81 -8.7 16.3
23:40 1025 30.27 854 25.22 -6 21.2 83 -8.4 16.8
23:45 1024 30.24 854 25.22 -6 21.2 84 -8.2 17.2
23:50 1024 30.24 854 25.22 -6 21.2 85 -8.1 17.4
23:55 1024 30.24 854 25.22 -5.9 21.3 85 -8 17.6
24:00 1024 30.24 854 25.22 -5.9 21.4 84 -8.1 17.4